Terminal Aerodrome Forecast
Issued by NWS Billings, MT

Home | Current Version | Previous Version | Text Only | Print | Product List | Glossary Off
Versions: 1 2 3 4 5 6 7 8 9 10 11 12 13 14 15 16 17 18 19 20 21 22 23 24 25 26 27 28

000
FTUS45 KBYZ 221003 AAA
TAFMLS
TAF AMD
KMLS 221003Z 2210/2306 09010KT 6SM -SHRA SCT019 BKN035 OVC080
     FM221500 10017G30KT 6SM -RA BR SCT009 OVC012
     FM222000 10017G27KT P6SM VCSH BKN025
     FM230000 10015G25KT 5SM -RA BR SCT009 BKN020 OVC030=

USA.gov is the U.S. government's official web portal to all federal, state and local government web resources and services.